createdAt,value
2022-11-16T00:01:40.135Z,15.30
2022-11-16T00:04:06.693Z,12.77
2022-11-16T00:06:33.107Z,12.10
2022-11-16T00:09:20.741Z,12.68
2022-11-16T00:11:49.545Z,14.38
2022-11-16T00:16:42.583Z,12.70
2022-11-16T00:19:10.771Z,11.30
2022-11-16T00:21:37.253Z,16.90
2022-11-16T00:24:03.997Z,12.85
2022-11-16T00:26:30.409Z,12.48
2022-11-16T00:28:57.232Z,11.55
2022-11-16T00:31:24.490Z,13.43
2022-11-16T00:33:51.574Z,12.70
2022-11-16T00:36:17.982Z,13.18
2022-11-16T00:38:44.772Z,13.13
2022-11-16T00:41:11.161Z,12.88
2022-11-16T00:43:37.658Z,12.05
2022-11-16T00:46:04.868Z,16.00
2022-11-16T00:48:31.863Z,12.85
2022-11-16T00:50:58.510Z,12.68
2022-11-16T00:53:24.957Z,15.27
2022-11-16T00:55:51.387Z,11.82
2022-11-16T00:58:17.807Z,11.55
2022-11-16T01:00:44.285Z,11.15
2022-11-16T01:03:10.953Z,13.75
2022-11-16T01:05:37.369Z,12.95
2022-11-16T01:08:03.980Z,13.15
2022-11-16T01:10:30.645Z,13.50
2022-11-16T01:12:57.277Z,10.98
2022-11-16T01:15:25.657Z,10.63
2022-11-16T01:17:53.496Z,10.40
2022-11-16T01:20:22.064Z,12.00
2022-11-16T01:22:48.716Z,11.45
2022-11-16T01:25:15.630Z,11.35
2022-11-16T01:27:43.083Z,12.43
2022-11-16T01:30:11.209Z,12.27
2022-11-16T01:32:38.108Z,11.23
2022-11-16T01:35:05.470Z,12.57
2022-11-16T01:37:31.968Z,13.07
2022-11-16T01:39:58.827Z,11.75
2022-11-16T01:42:30.169Z,12.55
2022-11-16T01:45:01.236Z,13.90
2022-11-16T01:47:27.830Z,12.52
2022-11-16T01:50:03.182Z,11.45
2022-11-16T01:52:32.809Z,12.13
2022-11-16T01:54:59.380Z,13.73
2022-11-16T01:57:36.376Z,11.38
2022-11-16T02:00:06.699Z,12.57
2022-11-16T02:02:33.244Z,11.05
2022-11-16T02:05:00.629Z,14.15
2022-11-16T02:08:11.259Z,10.02
2022-11-16T02:10:50.399Z,11.18
2022-11-16T02:13:32.308Z,11.43
2022-11-16T02:16:26.013Z,11.27
2022-11-16T02:18:58.280Z,11.00
2022-11-16T02:21:35.415Z,13.20
2022-11-16T02:24:33.089Z,14.20
2022-11-16T02:27:28.823Z,12.80
2022-11-16T02:29:55.811Z,12.32
2022-11-16T02:32:37.363Z,14.35
2022-11-16T02:35:14.939Z,12.43
2022-11-16T02:37:48.871Z,14.00
2022-11-16T02:40:16.698Z,13.35
2022-11-16T02:42:53.178Z,14.55
2022-11-16T02:45:23.554Z,16.85
2022-11-16T02:47:51.951Z,14.88
2022-11-16T02:50:19.618Z,15.30
2022-11-16T02:52:46.100Z,12.60
2022-11-16T02:55:12.602Z,13.77
2022-11-16T02:58:01.087Z,15.85
2022-11-16T03:00:36.153Z,14.43
2022-11-16T03:03:17.757Z,14.90
2022-11-16T03:05:51.394Z,13.32
2022-11-16T03:08:20.813Z,15.30
2022-11-16T03:11:10.389Z,15.68
2022-11-16T03:13:37.538Z,13.15
2022-11-16T03:16:09.680Z,16.67
2022-11-16T03:18:36.581Z,14.07
2022-11-16T03:21:11.270Z,14.82
2022-11-16T03:23:37.886Z,13.65
2022-11-16T03:26:06.906Z,14.00
2022-11-16T03:28:50.139Z,15.40
2022-11-16T03:31:24.294Z,13.07
2022-11-16T03:33:55.964Z,13.43
2022-11-16T03:36:34.054Z,14.60
2022-11-16T03:39:08.621Z,14.93
2022-11-16T03:41:37.277Z,12.20
2022-11-16T03:44:04.837Z,16.60
2022-11-16T03:46:31.260Z,13.70
2022-11-16T03:48:58.893Z,15.25
2022-11-16T03:51:25.776Z,13.17
2022-11-16T03:53:52.328Z,14.47
2022-11-16T03:56:19.019Z,14.10
2022-11-16T03:58:45.484Z,13.57
2022-11-16T04:01:11.920Z,15.73
2022-11-16T04:03:38.350Z,13.35
2022-11-16T04:06:23.788Z,14.68
2022-11-16T04:09:08.727Z,13.13
2022-11-16T04:11:54.300Z,13.48
2022-11-16T04:14:42.039Z,15.63
2022-11-16T04:17:35.322Z,13.27
2022-11-16T04:20:21.437Z,13.47
2022-11-16T04:23:16.001Z,15.30
2022-11-16T04:25:43.651Z,15.88
2022-11-16T04:28:19.180Z,15.57
2022-11-16T04:31:09.471Z,15.07
2022-11-16T04:33:54.485Z,15.17
2022-11-16T04:36:39.455Z,15.73
2022-11-16T04:39:06.017Z,14.60
2022-11-16T04:41:51.449Z,14.83
2022-11-16T04:44:18.473Z,15.43
2022-11-16T04:47:03.968Z,15.13
2022-11-16T04:49:30.446Z,13.40
2022-11-16T04:51:56.888Z,13.83
2022-11-16T04:54:23.327Z,15.20
2022-11-16T04:56:49.758Z,15.50
2022-11-16T04:59:16.236Z,14.87
2022-11-16T05:02:00.924Z,15.30
2022-11-16T05:04:27.370Z,14.55
2022-11-16T05:06:53.834Z,16.50
2022-11-16T05:09:20.249Z,16.27
2022-11-16T05:11:46.652Z,17.23
2022-11-16T05:14:13.064Z,16.30
2022-11-16T05:16:39.488Z,15.38
2022-11-16T05:19:24.479Z,15.40
2022-11-16T05:21:50.941Z,15.57
2022-11-16T05:24:35.548Z,16.20
2022-11-16T05:27:07.584Z,16.63
2022-11-16T05:29:34.839Z,15.60
2022-11-16T05:32:02.009Z,16.40
2022-11-16T05:34:28.552Z,16.10
2022-11-16T05:36:55.950Z,15.07
2022-11-16T05:39:22.930Z,21.53
2022-11-16T05:41:49.611Z,19.07
2022-11-16T05:44:16.637Z,16.63
2022-11-16T05:46:43.825Z,15.67
2022-11-16T05:49:11.900Z,17.07
2022-11-16T05:51:40.315Z,16.80
2022-11-16T05:54:07.105Z,15.57
2022-11-16T05:56:34.163Z,18.13
2022-11-16T05:59:00.813Z,16.63
2022-11-16T06:01:27.253Z,16.23
2022-11-16T06:03:53.767Z,15.37
2022-11-16T06:06:20.523Z,18.60
2022-11-16T06:08:47.001Z,19.60
2022-11-16T06:11:13.637Z,15.82
2022-11-16T06:13:40.055Z,16.43
2022-11-16T06:16:06.796Z,18.20
2022-11-16T06:18:37.304Z,17.97
2022-11-16T06:21:04.018Z,14.43
2022-11-16T06:23:30.463Z,18.48
2022-11-16T06:25:56.908Z,16.83
2022-11-16T06:28:23.385Z,19.05
2022-11-16T06:30:50.114Z,18.60
2022-11-16T06:33:17.579Z,19.37
2022-11-16T06:35:44.332Z,20.43
2022-11-16T06:38:10.926Z,17.40
2022-11-16T06:40:37.845Z,18.83
2022-11-16T06:43:04.350Z,20.10
2022-11-16T06:45:30.843Z,19.37
2022-11-16T06:47:57.253Z,20.13
2022-11-16T06:50:23.669Z,20.20
2022-11-16T06:52:50.068Z,21.77
2022-11-16T06:55:16.837Z,20.90
2022-11-16T06:57:43.289Z,22.73
2022-11-16T07:00:10.908Z,22.50
2022-11-16T07:02:38.170Z,21.10
2022-11-16T07:05:04.941Z,19.77
2022-11-16T07:07:31.760Z,23.13
2022-11-16T07:09:58.316Z,21.13
2022-11-16T07:12:24.742Z,24.10
2022-11-16T07:14:51.151Z,21.13
2022-11-16T07:17:17.579Z,22.40
2022-11-16T07:19:43.984Z,25.00
2022-11-16T07:22:10.412Z,21.40
2022-11-16T07:24:36.820Z,22.60
2022-11-16T07:27:03.232Z,22.50
2022-11-16T07:29:30.673Z,23.98
2022-11-16T07:31:57.223Z,22.80
2022-11-16T07:34:23.618Z,20.65
2022-11-16T07:36:50.029Z,23.73
2022-11-16T07:39:16.440Z,26.05
2022-11-16T07:41:44.189Z,22.10
2022-11-16T07:44:12.389Z,23.17
2022-11-16T07:46:47.902Z,23.42
2022-11-16T07:49:16.092Z,26.23
2022-11-16T07:51:43.036Z,24.27
2022-11-16T07:54:15.648Z,20.63
2022-11-16T07:56:42.406Z,23.23
2022-11-16T07:59:08.935Z,27.90
2022-11-16T08:01:35.515Z,21.93
2022-11-16T08:04:02.619Z,26.43
2022-11-16T08:06:31.048Z,25.17
2022-11-16T08:08:58.960Z,22.03
2022-11-16T08:11:25.819Z,24.95
2022-11-16T08:13:52.256Z,22.87
2022-11-16T08:16:20.786Z,22.70
2022-11-16T08:18:47.596Z,24.40
2022-11-16T08:21:15.316Z,21.83
2022-11-16T08:23:41.914Z,26.47
2022-11-16T08:26:14.245Z,21.67
2022-11-16T08:28:41.668Z,23.58
2022-11-16T08:31:22.216Z,25.35
2022-11-16T08:33:48.600Z,22.30
2022-11-16T08:36:17.896Z,25.13
2022-11-16T08:38:46.103Z,22.35
2022-11-16T08:41:12.737Z,19.45
2022-11-16T08:43:40.387Z,22.02
2022-11-16T08:46:07.996Z,21.20
2022-11-16T08:48:35.438Z,23.77
2022-11-16T08:51:17.600Z,21.58
2022-11-16T08:53:47.855Z,21.42
2022-11-16T08:56:14.702Z,22.52
2022-11-16T08:58:47.045Z,23.48
2022-11-16T09:01:19.008Z,24.88
2022-11-16T09:03:45.794Z,23.95
2022-11-16T09:06:12.842Z,22.08
2022-11-16T09:08:41.106Z,23.83
2022-11-16T09:11:09.619Z,21.63
2022-11-16T09:13:36.367Z,20.40
2022-11-16T09:16:03.707Z,22.98
2022-11-16T09:18:30.740Z,23.27
2022-11-16T09:20:57.519Z,24.70
2022-11-16T09:23:25.609Z,21.25
2022-11-16T09:25:53.077Z,20.63
2022-11-16T09:28:20.336Z,24.23
2022-11-16T09:30:49.168Z,23.35
2022-11-16T09:33:15.864Z,20.45
2022-11-16T09:35:42.475Z,21.15
2022-11-16T09:38:15.985Z,23.38
2022-11-16T09:40:47.062Z,18.95
2022-11-16T09:43:28.532Z,20.98
2022-11-16T09:46:24.502Z,26.17
2022-11-16T09:48:51.184Z,22.25
2022-11-16T09:51:20.411Z,23.05
2022-11-16T09:53:56.745Z,22.60
2022-11-16T09:56:25.290Z,23.88
2022-11-16T09:59:16.680Z,22.02
2022-11-16T10:01:48.944Z,22.63
2022-11-16T10:04:23.088Z,22.52
2022-11-16T10:06:57.637Z,23.92
2022-11-16T10:09:25.698Z,22.05
2022-11-16T10:11:59.108Z,22.77
2022-11-16T10:14:48.130Z,22.55
2022-11-16T10:17:27.090Z,21.58
2022-11-16T10:19:57.147Z,23.27
2022-11-16T10:22:51.103Z,23.35
2022-11-16T10:25:26.215Z,23.50
2022-11-16T10:28:30.269Z,23.25
2022-11-16T10:31:24.447Z,24.40
2022-11-16T10:33:53.129Z,22.45
2022-11-16T10:36:21.292Z,23.27
2022-11-16T10:38:47.778Z,24.50
2022-11-16T10:41:29.416Z,27.75
2022-11-16T10:43:58.190Z,27.92
2022-11-16T10:46:30.404Z,25.48
2022-11-16T10:49:05.892Z,27.35
2022-11-16T10:51:32.303Z,27.70
2022-11-16T10:53:58.887Z,23.65
2022-11-16T10:56:30.671Z,26.15
2022-11-16T10:58:58.072Z,25.95
2022-11-16T11:01:32.086Z,28.50
2022-11-16T11:04:28.498Z,24.90
2022-11-16T11:07:00.302Z,30.13
2022-11-16T11:09:26.691Z,26.42
2022-11-16T11:12:32.845Z,25.92
2022-11-16T11:15:11.335Z,25.33
2022-11-16T11:17:48.609Z,26.83
2022-11-16T11:20:14.955Z,27.67
2022-11-16T11:23:02.869Z,26.40
2022-11-16T11:25:35.847Z,29.08
2022-11-16T11:28:24.400Z,24.05
2022-11-16T11:30:56.540Z,26.85
2022-11-16T11:33:25.073Z,28.05
2022-11-16T11:36:09.573Z,25.20
2022-11-16T11:38:57.372Z,26.92
2022-11-16T11:41:23.876Z,26.70
2022-11-16T11:44:03.220Z,28.00
2022-11-16T11:47:06.431Z,28.23
2022-11-16T11:49:33.673Z,29.33
2022-11-16T11:52:09.132Z,29.45
2022-11-16T11:54:43.159Z,28.58
2022-11-16T11:57:15.687Z,29.15
2022-11-16T11:59:42.171Z,32.38
2022-11-16T12:02:27.297Z,27.65
2022-11-16T12:05:10.257Z,34.15
2022-11-16T12:07:52.137Z,33.50
2022-11-16T12:10:26.769Z,38.40
2022-11-16T12:13:28.347Z,41.00
2022-11-16T12:16:00.371Z,39.53
2022-11-16T12:18:32.905Z,40.95
2022-11-16T12:21:09.014Z,40.33
2022-11-16T12:23:42.253Z,44.38
2022-11-16T12:26:20.682Z,41.30
2022-11-16T12:29:10.635Z,46.53
2022-11-16T12:32:05.727Z,41.75
2022-11-16T12:35:08.422Z,40.92
2022-11-16T12:37:49.301Z,36.90
2022-11-16T12:40:38.918Z,39.15
2022-11-16T12:43:13.238Z,39.90
2022-11-16T12:46:01.818Z,42.08
2022-11-16T12:48:40.333Z,37.05
2022-11-16T12:51:31.981Z,39.80
2022-11-16T12:54:28.993Z,44.85
2022-11-16T12:57:15.709Z,39.55
2022-11-16T12:59:55.912Z,35.40
2022-11-16T13:02:50.239Z,38.15
2022-11-16T13:05:20.885Z,40.35
2022-11-16T13:07:52.790Z,36.85
2022-11-16T13:10:35.567Z,39.13
2022-11-16T13:13:30.121Z,41.83
2022-11-16T13:15:53.121Z,41.20
2022-11-16T13:18:20.959Z,38.17
2022-11-16T13:21:14.697Z,31.63
2022-11-16T13:23:47.117Z,35.20
2022-11-16T13:26:45.056Z,38.22
2022-11-16T13:29:22.087Z,33.30
2022-11-16T13:31:58.396Z,34.65
2022-11-16T13:34:27.498Z,33.40
2022-11-16T13:36:53.972Z,38.17
2022-11-16T13:39:22.916Z,33.33
2022-11-16T13:42:06.434Z,35.92
2022-11-16T13:44:33.354Z,36.20
2022-11-16T13:47:05.810Z,35.38
2022-11-16T13:49:40.798Z,33.63
2022-11-16T13:52:35.454Z,31.25
2022-11-16T13:54:57.278Z,30.85
2022-11-16T13:57:30.721Z,30.70
2022-11-16T14:00:03.764Z,32.03
2022-11-16T14:02:31.671Z,28.48
2022-11-16T14:05:03.164Z,31.85
2022-11-16T14:07:34.644Z,29.30
2022-11-16T14:10:01.662Z,32.20
2022-11-16T14:12:37.308Z,31.55
2022-11-16T14:15:11.933Z,29.98
2022-11-16T14:18:23.153Z,30.13
2022-11-16T14:20:58.551Z,30.38
2022-11-16T14:23:52.109Z,29.90
2022-11-16T14:26:46.531Z,30.83
2022-11-16T14:29:28.081Z,29.00
2022-11-16T14:31:57.016Z,26.85
2022-11-16T14:34:28.131Z,26.45
2022-11-16T14:36:55.025Z,26.70
2022-11-16T14:39:40.005Z,24.65
2022-11-16T14:42:24.999Z,26.58
2022-11-16T14:44:59.401Z,27.52
2022-11-16T14:47:27.632Z,26.92
2022-11-16T14:49:54.991Z,25.08
2022-11-16T14:52:37.895Z,22.60
2022-11-16T14:55:09.986Z,25.98
2022-11-16T14:57:36.481Z,24.90
2022-11-16T15:00:18.332Z,27.02
2022-11-16T15:02:52.064Z,23.58
2022-11-16T15:05:26.795Z,24.33
2022-11-16T15:07:53.356Z,24.13
2022-11-16T15:10:22.310Z,24.27
2022-11-16T15:12:52.123Z,21.70
2022-11-16T15:15:21.950Z,25.90
2022-11-16T15:18:00.621Z,23.45
2022-11-16T15:20:29.174Z,27.48
2022-11-16T15:22:58.142Z,30.95
2022-11-16T15:25:26.042Z,27.40
2022-11-16T15:27:52.850Z,29.30
2022-11-16T15:30:28.253Z,23.27
2022-11-16T15:32:55.309Z,28.75
2022-11-16T15:35:33.033Z,26.25
2022-11-16T15:38:07.058Z,28.48
2022-11-16T15:40:34.236Z,28.08
2022-11-16T15:43:02.592Z,26.05
2022-11-16T15:45:29.664Z,24.48
2022-11-16T15:47:56.965Z,24.83
2022-11-16T15:50:23.642Z,24.55
2022-11-16T15:52:55.340Z,20.55
2022-11-16T15:55:30.562Z,25.33
2022-11-16T15:58:01.115Z,28.45
2022-11-16T16:00:28.248Z,25.30
2022-11-16T16:03:01.449Z,22.60
2022-11-16T16:05:36.736Z,25.95
2022-11-16T16:08:03.584Z,21.83
2022-11-16T16:10:30.014Z,19.75
2022-11-16T16:12:58.503Z,18.27
2022-11-16T16:15:27.343Z,17.15
2022-11-16T16:17:54.023Z,20.73
2022-11-16T16:20:22.672Z,15.02
2022-11-16T16:22:49.227Z,13.30
2022-11-16T16:25:30.511Z,13.68
2022-11-16T16:27:58.040Z,14.05
2022-11-16T16:30:24.688Z,15.30
2022-11-16T16:32:51.563Z,13.90
2022-11-16T16:35:21.114Z,10.73
2022-11-16T16:37:52.453Z,13.38
2022-11-16T16:40:18.861Z,12.98
2022-11-16T16:42:48.088Z,11.63
2022-11-16T16:45:25.615Z,12.50
2022-11-16T16:47:52.099Z,10.70
2022-11-16T16:50:18.539Z,10.70
2022-11-16T16:52:45.589Z,14.23
2022-11-16T16:55:12.002Z,11.98
2022-11-16T16:57:38.494Z,12.98
2022-11-16T17:00:05.328Z,12.93
2022-11-16T17:02:31.730Z,10.68
2022-11-16T17:04:58.173Z,10.80
2022-11-16T17:07:25.080Z,11.75
2022-11-16T17:09:51.628Z,9.30
2022-11-16T17:12:18.038Z,14.07
2022-11-16T17:14:51.203Z,12.23
2022-11-16T17:17:19.335Z,10.57
2022-11-16T17:19:46.316Z,9.00
2022-11-16T17:22:13.967Z,12.07
2022-11-16T17:24:40.536Z,10.73
2022-11-16T17:27:06.943Z,9.67
2022-11-16T17:29:33.479Z,8.18
2022-11-16T17:31:59.889Z,11.50
2022-11-16T17:34:26.325Z,9.00
2022-11-16T17:36:52.706Z,7.78
2022-11-16T17:39:19.284Z,8.67
2022-11-16T17:41:45.773Z,9.30
2022-11-16T17:44:14.867Z,9.47
2022-11-16T17:46:43.750Z,10.40
2022-11-16T17:49:10.166Z,8.77
2022-11-16T17:51:36.636Z,8.98
2022-11-16T17:54:03.070Z,6.90
2022-11-16T17:56:29.602Z,8.38
2022-11-16T17:58:58.374Z,6.93
2022-11-16T18:01:25.220Z,8.93
2022-11-16T18:03:51.743Z,8.80
2022-11-16T18:06:20.159Z,7.40
2022-11-16T18:08:46.936Z,8.40
2022-11-16T18:11:14.396Z,8.17
2022-11-16T18:13:41.076Z,7.87
2022-11-16T18:16:10.577Z,8.05
2022-11-16T18:18:38.387Z,7.57
2022-11-16T18:21:06.111Z,9.67
2022-11-16T18:23:33.671Z,8.63
2022-11-16T18:26:00.816Z,8.30
2022-11-16T18:28:27.240Z,8.57
2022-11-16T18:31:04.914Z,8.53
2022-11-16T18:33:31.953Z,9.57
2022-11-16T18:35:58.798Z,7.50
2022-11-16T18:38:25.248Z,8.50
2022-11-16T18:41:12.406Z,6.85
2022-11-16T18:43:50.903Z,7.83
2022-11-16T18:46:25.654Z,7.17
2022-11-16T18:48:52.532Z,7.25
2022-11-16T18:51:19.742Z,8.80
2022-11-16T18:53:47.004Z,7.27
2022-11-16T18:56:13.440Z,7.00
2022-11-16T18:58:55.375Z,6.90
2022-11-16T19:01:24.040Z,6.63
2022-11-16T19:03:54.887Z,6.07
2022-11-16T19:06:22.413Z,6.47
2022-11-16T19:08:56.210Z,7.15
2022-11-16T19:11:23.707Z,6.53
2022-11-16T19:13:53.696Z,6.88
2022-11-16T19:16:20.169Z,7.20
2022-11-16T19:18:46.586Z,6.50
2022-11-16T19:21:14.789Z,5.70
2022-11-16T19:23:59.462Z,6.30
2022-11-16T19:26:27.144Z,5.53
2022-11-16T19:28:54.217Z,6.27
2022-11-16T19:31:38.822Z,7.07
2022-11-16T19:34:11.314Z,5.80
2022-11-16T19:36:37.834Z,6.27
2022-11-16T19:39:05.429Z,6.47
2022-11-16T19:41:31.820Z,5.57
2022-11-16T19:44:00.126Z,5.70
2022-11-16T19:46:28.297Z,4.20
2022-11-16T19:48:55.134Z,4.77
2022-11-16T19:51:32.318Z,5.73
2022-11-16T19:54:00.160Z,4.53
2022-11-16T19:56:26.712Z,6.00
2022-11-16T19:58:53.271Z,5.35
2022-11-16T20:01:22.122Z,4.27
2022-11-16T20:03:49.167Z,5.90
2022-11-16T20:06:20.919Z,5.27
2022-11-16T20:08:52.547Z,5.47
2022-11-16T20:11:20.940Z,5.23
2022-11-16T20:13:52.224Z,5.40
2022-11-16T20:16:19.592Z,5.10
2022-11-16T20:18:46.112Z,3.80
2022-11-16T20:21:17.578Z,5.97
2022-11-16T20:23:45.416Z,5.13
2022-11-16T20:26:12.934Z,3.83
2022-11-16T20:28:41.919Z,3.43
2022-11-16T20:31:16.813Z,3.40
2022-11-16T20:33:49.742Z,4.07
2022-11-16T20:36:16.164Z,4.33
2022-11-16T20:38:42.556Z,3.80
2022-11-16T20:41:14.046Z,3.73
2022-11-16T20:43:41.656Z,4.00
2022-11-16T20:46:09.625Z,4.57
2022-11-16T20:48:36.947Z,4.87
2022-11-16T20:51:03.773Z,4.63
2022-11-16T20:53:30.277Z,4.63
2022-11-16T20:55:57.506Z,5.07
2022-11-16T20:58:24.572Z,4.70
2022-11-16T21:00:51.202Z,5.57
2022-11-16T21:03:17.683Z,4.73
2022-11-16T21:05:44.809Z,4.50
2022-11-16T21:08:12.169Z,6.33
2022-11-16T21:10:39.512Z,5.18
2022-11-16T21:13:25.171Z,4.77
2022-11-16T21:16:00.502Z,4.90
2022-11-16T21:18:30.721Z,4.50
2022-11-16T21:20:59.667Z,4.53
2022-11-16T21:23:27.109Z,4.17
2022-11-16T21:25:53.597Z,4.70
2022-11-16T21:28:22.761Z,6.80
2022-11-16T21:30:59.168Z,5.07
2022-11-16T21:33:25.895Z,3.77
2022-11-16T21:35:53.229Z,3.73
2022-11-16T21:38:20.540Z,4.20
2022-11-16T21:40:47.144Z,3.70
2022-11-16T21:43:16.939Z,2.90
2022-11-16T21:45:44.344Z,3.63
2022-11-16T21:48:11.171Z,2.97
2022-11-16T21:50:37.838Z,3.47
2022-11-16T21:53:05.510Z,3.47
2022-11-16T21:55:32.407Z,2.40
2022-11-16T21:57:58.999Z,3.07
2022-11-16T22:00:26.659Z,2.63
2022-11-16T22:02:53.592Z,3.20
2022-11-16T22:05:45.767Z,3.67
2022-11-16T22:08:12.300Z,2.77
2022-11-16T22:10:38.750Z,3.37
2022-11-16T22:13:05.465Z,3.40
2022-11-16T22:15:31.916Z,5.43
2022-11-16T22:17:58.355Z,3.57
2022-11-16T22:20:24.742Z,3.58
2022-11-16T22:22:51.155Z,3.80
2022-11-16T22:25:18.504Z,3.40
2022-11-16T22:28:18.623Z,4.10
2022-11-16T22:30:34.555Z,3.40
2022-11-16T22:33:00.971Z,3.37
2022-11-16T22:35:27.388Z,4.20
2022-11-16T22:37:53.799Z,3.30
2022-11-16T22:40:20.190Z,3.80
2022-11-16T22:42:46.633Z,4.77
2022-11-16T22:45:13.057Z,4.13
2022-11-16T22:47:39.497Z,3.60
2022-11-16T22:50:06.241Z,3.47
2022-11-16T22:52:32.676Z,3.17
2022-11-16T22:54:59.506Z,3.60
2022-11-16T22:57:25.950Z,3.70
2022-11-16T22:59:53.241Z,3.00
2022-11-16T23:02:19.630Z,3.83
2022-11-16T23:04:46.045Z,3.07
2022-11-16T23:07:12.455Z,3.57
2022-11-16T23:09:38.908Z,2.93
2022-11-16T23:12:23.876Z,2.90
2022-11-16T23:15:28.696Z,3.03
2022-11-16T23:17:55.198Z,2.80
2022-11-16T23:20:39.900Z,4.10
2022-11-16T23:23:25.030Z,3.57
2022-11-16T23:26:10.049Z,3.00
2022-11-16T23:28:36.486Z,2.73
2022-11-16T23:31:02.880Z,2.83
2022-11-16T23:33:45.472Z,2.57
2022-11-16T23:36:12.735Z,2.60
2022-11-16T23:38:39.663Z,3.50
2022-11-16T23:41:25.279Z,3.07
2022-11-16T23:43:57.688Z,3.40
2022-11-16T23:46:28.443Z,3.07
2022-11-16T23:48:54.959Z,3.63
2022-11-16T23:51:23.264Z,3.30
2022-11-16T23:53:53.898Z,3.97
2022-11-16T23:56:21.321Z,3.33
2022-11-16T23:58:48.065Z,3.40
